createdAt,value
2018-12-20T00:00:24.345Z,17.90
2018-12-20T00:01:24.461Z,18.20
2018-12-20T00:02:24.351Z,18.00
2018-12-20T00:03:24.434Z,18.30
2018-12-20T00:04:24.319Z,19.10
2018-12-20T00:05:24.287Z,18.20
2018-12-20T00:06:24.371Z,19.70
2018-12-20T00:07:24.297Z,19.10
2018-12-20T00:08:24.340Z,18.70
2018-12-20T00:09:24.292Z,18.90
2018-12-20T00:10:24.264Z,19.50
2018-12-20T00:11:24.354Z,19.90
2018-12-20T00:12:24.205Z,19.40
2018-12-20T00:13:24.205Z,21.00
2018-12-20T00:14:29.931Z,20.20
2018-12-20T00:15:25.168Z,18.90
2018-12-20T00:16:24.184Z,19.50
2018-12-20T00:17:24.159Z,20.70
2018-12-20T00:18:24.153Z,20.20
2018-12-20T00:19:24.131Z,20.00
2018-12-20T00:20:24.225Z,18.60
2018-12-20T00:21:24.217Z,18.50
2018-12-20T00:22:24.153Z,17.80
2018-12-20T00:23:24.088Z,18.20
2018-12-20T00:24:24.074Z,17.80
2018-12-20T00:25:24.079Z,18.80
2018-12-20T00:26:24.154Z,18.90
2018-12-20T00:27:24.073Z,17.70
2018-12-20T00:28:24.017Z,17.90
2018-12-20T00:29:24.084Z,18.80
2018-12-20T00:30:24.170Z,18.10
2018-12-20T00:31:24.162Z,19.80
2018-12-20T00:32:23.981Z,18.70
2018-12-20T00:33:24.012Z,19.40
2018-12-20T00:34:24.137Z,18.10
2018-12-20T00:35:24.031Z,19.30
2018-12-20T00:36:24.003Z,19.70
2018-12-20T00:37:23.937Z,18.50
2018-12-20T00:38:23.913Z,19.70
2018-12-20T00:39:23.988Z,20.90
2018-12-20T00:40:23.994Z,20.60
2018-12-20T00:41:24.063Z,19.90
2018-12-20T00:42:23.995Z,18.80
2018-12-20T00:43:23.865Z,18.70
2018-12-20T00:44:23.845Z,19.90
2018-12-20T00:45:23.945Z,20.00
2018-12-20T00:46:23.832Z,19.60
2018-12-20T00:47:23.923Z,20.00
2018-12-20T00:48:24.044Z,18.50
2018-12-20T00:49:23.803Z,19.50
2018-12-20T00:50:23.775Z,21.50
2018-12-20T00:51:23.801Z,20.70
2018-12-20T00:52:23.873Z,19.80
2018-12-20T00:53:23.764Z,20.10
2018-12-20T00:54:23.953Z,20.40
2018-12-20T00:55:23.726Z,20.50
2018-12-20T00:56:23.874Z,21.60
2018-12-20T00:57:23.729Z,20.30
2018-12-20T00:58:23.753Z,20.80
2018-12-20T00:59:23.683Z,21.50
2018-12-20T01:00:23.802Z,23.00
2018-12-20T01:01:23.773Z,20.40
2018-12-20T01:02:23.737Z,19.50
2018-12-20T01:03:23.724Z,19.00
2018-12-20T01:04:23.748Z,18.40
2018-12-20T01:05:23.844Z,19.80
2018-12-20T01:06:23.614Z,19.20
2018-12-20T01:07:23.643Z,19.70
2018-12-20T01:08:23.731Z,21.00
2018-12-20T01:09:23.585Z,21.70
2018-12-20T01:10:23.558Z,20.90
2018-12-20T01:11:23.557Z,19.80
2018-12-20T01:12:23.665Z,21.70
2018-12-20T01:13:23.557Z,20.70
2018-12-20T01:14:23.542Z,22.10
2018-12-20T01:15:23.512Z,22.40
2018-12-20T01:16:23.507Z,19.80
2018-12-20T01:17:23.567Z,19.70
2018-12-20T01:18:23.473Z,21.10
2018-12-20T01:19:23.591Z,21.20
2018-12-20T01:20:23.435Z,20.70
2018-12-20T01:21:23.508Z,21.80
2018-12-20T01:22:23.444Z,20.70
2018-12-20T01:23:23.441Z,20.60
2018-12-20T01:24:23.499Z,20.60
2018-12-20T01:25:23.544Z,20.90
2018-12-20T01:26:23.421Z,20.50
2018-12-20T01:27:23.449Z,20.40
2018-12-20T01:28:23.489Z,19.70
2018-12-20T01:29:23.389Z,21.20
2018-12-20T01:30:23.371Z,19.60
2018-12-20T01:31:23.331Z,20.50
2018-12-20T01:32:23.422Z,20.00
2018-12-20T01:33:23.338Z,20.90
2018-12-20T01:34:23.287Z,20.70
2018-12-20T01:35:23.393Z,21.00
2018-12-20T01:36:23.538Z,22.00
2018-12-20T01:37:23.251Z,22.70
2018-12-20T01:38:23.397Z,24.10
2018-12-20T01:39:23.412Z,21.40
2018-12-20T01:40:23.217Z,21.50
2018-12-20T01:41:23.271Z,20.20
2018-12-20T01:42:23.273Z,20.40
2018-12-20T01:43:23.213Z,21.00
2018-12-20T01:44:23.191Z,19.50
2018-12-20T01:45:23.162Z,19.80
2018-12-20T01:46:23.307Z,19.60
2018-12-20T01:47:23.138Z,19.70
2018-12-20T01:48:23.310Z,20.40
2018-12-20T01:49:23.122Z,21.30
2018-12-20T01:50:23.280Z,21.70
2018-12-20T01:51:23.092Z,21.50
2018-12-20T01:52:23.100Z,19.40
2018-12-20T01:53:23.083Z,21.50
2018-12-20T01:54:23.108Z,21.10
2018-12-20T01:55:23.215Z,21.20
2018-12-20T01:56:23.057Z,20.80
2018-12-20T01:57:23.204Z,19.80
2018-12-20T01:58:23.188Z,21.70
2018-12-20T01:59:23.061Z,20.70
2018-12-20T02:00:23.065Z,19.40
2018-12-20T02:01:22.992Z,21.40
2018-12-20T02:02:23.004Z,20.90
2018-12-20T02:03:23.005Z,19.70
2018-12-20T02:04:23.139Z,21.20
2018-12-20T02:05:22.954Z,21.60
2018-12-20T02:06:22.973Z,22.00
2018-12-20T02:07:23.022Z,23.20
2018-12-20T02:08:22.922Z,21.90
2018-12-20T02:09:23.025Z,21.40
2018-12-20T02:10:23.072Z,21.80
2018-12-20T02:11:22.930Z,19.50
2018-12-20T02:12:23.023Z,20.60
2018-12-20T02:13:22.971Z,22.00
2018-12-20T02:14:22.843Z,21.90
2018-12-20T02:15:22.969Z,22.30
2018-12-20T02:16:22.889Z,23.30
2018-12-20T02:17:22.812Z,21.80
2018-12-20T02:18:22.817Z,22.20
2018-12-20T02:19:22.808Z,22.30
2018-12-20T02:20:22.886Z,21.70
2018-12-20T02:21:22.832Z,22.60
2018-12-20T02:22:22.997Z,21.90
2018-12-20T02:23:22.849Z,21.60
2018-12-20T02:24:22.748Z,21.40
2018-12-20T02:25:22.789Z,23.10
2018-12-20T02:26:22.887Z,23.30
2018-12-20T02:27:22.702Z,22.40
2018-12-20T02:28:22.681Z,22.40
2018-12-20T02:29:22.673Z,22.40
2018-12-20T02:30:22.718Z,22.00
2018-12-20T02:31:22.649Z,22.50
2018-12-20T02:32:22.658Z,22.10
2018-12-20T02:33:22.819Z,22.50
2018-12-20T02:34:22.694Z,20.80
2018-12-20T02:35:22.601Z,22.40
2018-12-20T02:36:22.610Z,22.30
2018-12-20T02:37:22.855Z,21.20
2018-12-20T02:38:22.565Z,22.30
2018-12-20T02:39:22.548Z,20.10
2018-12-20T02:40:22.654Z,22.00
2018-12-20T02:41:22.779Z,22.50
2018-12-20T02:42:22.525Z,22.90
2018-12-20T02:43:22.532Z,22.40
2018-12-20T02:44:22.682Z,24.00
2018-12-20T02:45:22.684Z,24.10
2018-12-20T02:46:22.629Z,23.10
2018-12-20T02:47:22.460Z,23.60
2018-12-20T02:48:22.613Z,24.20
2018-12-20T02:49:22.439Z,22.50
2018-12-20T02:50:22.474Z,21.00
2018-12-20T02:51:22.758Z,21.00
2018-12-20T02:52:22.405Z,21.40
2018-12-20T02:53:22.452Z,24.00
2018-12-20T02:54:22.381Z,23.20
2018-12-20T02:55:22.568Z,23.50
2018-12-20T02:56:22.615Z,23.50
2018-12-20T02:57:22.565Z,24.40
2018-12-20T02:58:22.571Z,22.30
2018-12-20T02:59:22.463Z,24.00
2018-12-20T03:00:22.432Z,23.80
2018-12-20T03:01:22.408Z,22.10
2018-12-20T03:02:22.291Z,23.90
2018-12-20T03:03:22.412Z,21.30
2018-12-20T03:04:22.458Z,19.90
2018-12-20T03:05:22.272Z,23.40
2018-12-20T03:06:22.455Z,21.30
2018-12-20T03:07:22.248Z,24.00
2018-12-20T03:08:22.263Z,23.90
2018-12-20T03:09:22.388Z,24.10
2018-12-20T03:10:22.399Z,22.30
2018-12-20T03:11:22.229Z,24.00
2018-12-20T03:12:22.327Z,23.70
2018-12-20T03:13:22.184Z,20.80
2018-12-20T03:14:22.355Z,22.00
2018-12-20T03:15:22.150Z,22.10
2018-12-20T03:16:22.366Z,19.20
2018-12-20T03:17:22.169Z,21.30
2018-12-20T03:18:22.299Z,20.90
2018-12-20T03:19:22.409Z,19.50
2018-12-20T03:20:22.101Z,20.70
2018-12-20T03:21:22.167Z,20.90
2018-12-20T03:22:22.188Z,21.90
2018-12-20T03:23:22.063Z,19.80
2018-12-20T03:24:22.332Z,20.00
2018-12-20T03:25:22.205Z,20.10
2018-12-20T03:26:22.044Z,21.50
2018-12-20T03:27:22.063Z,22.40
2018-12-20T03:28:22.033Z,21.50
2018-12-20T03:29:22.230Z,21.80
2018-12-20T03:30:22.141Z,23.50
2018-12-20T03:31:21.988Z,24.00
2018-12-20T03:32:22.190Z,21.90
2018-12-20T03:33:22.004Z,21.00
2018-12-20T03:34:22.095Z,21.40
2018-12-20T03:35:22.048Z,23.40
2018-12-20T03:36:22.035Z,23.20
2018-12-20T03:37:22.009Z,23.30
2018-12-20T03:38:21.916Z,21.30
2018-12-20T03:39:22.151Z,21.10
2018-12-20T03:40:21.876Z,20.40
2018-12-20T03:41:21.882Z,21.60
2018-12-20T03:42:21.846Z,20.80
2018-12-20T03:43:21.904Z,22.10
2018-12-20T03:44:21.850Z,20.50
2018-12-20T03:45:28.637Z,20.70
2018-12-20T03:46:23.126Z,21.80
2018-12-20T03:47:21.820Z,22.00
2018-12-20T03:48:21.810Z,22.10
2018-12-20T03:49:21.890Z,20.80
2018-12-20T03:50:21.807Z,20.10
2018-12-20T03:51:21.900Z,20.20
2018-12-20T03:52:21.974Z,19.80
2018-12-20T03:53:21.939Z,20.00
2018-12-20T03:54:21.720Z,21.30
2018-12-20T03:55:21.853Z,21.30
2018-12-20T03:56:21.694Z,21.00
2018-12-20T03:57:21.915Z,21.70
2018-12-20T03:58:21.751Z,19.10
2018-12-20T03:59:22.023Z,19.60
2018-12-20T04:00:21.904Z,19.90
2018-12-20T04:01:21.630Z,21.70
2018-12-20T04:02:21.628Z,22.60
2018-12-20T04:03:21.645Z,20.80
2018-12-20T04:04:21.599Z,23.00
2018-12-20T04:05:21.858Z,21.60
2018-12-20T04:06:21.619Z,23.80
2018-12-20T04:07:21.662Z,22.30
2018-12-20T04:08:21.625Z,20.70
2018-12-20T04:09:21.813Z,19.60
2018-12-20T04:10:21.596Z,20.60
2018-12-20T04:11:21.768Z,22.50
2018-12-20T04:12:21.512Z,21.30
2018-12-20T04:13:21.637Z,20.50
2018-12-20T04:14:21.548Z,19.30
2018-12-20T04:15:21.724Z,20.50
2018-12-20T04:16:21.785Z,20.90
2018-12-20T04:17:21.461Z,22.90
2018-12-20T04:18:21.525Z,20.80
2018-12-20T04:19:21.728Z,22.90
2018-12-20T04:20:21.569Z,21.20
2018-12-20T04:21:21.405Z,20.10
2018-12-20T04:22:21.461Z,20.60
2018-12-20T04:23:21.390Z,20.60
2018-12-20T04:24:21.405Z,20.60
2018-12-20T04:25:21.415Z,19.00
2018-12-20T04:26:21.353Z,20.30
2018-12-20T04:27:21.358Z,19.60
2018-12-20T04:28:21.678Z,19.50
2018-12-20T04:29:21.363Z,19.80
2018-12-20T04:30:21.316Z,19.10
2018-12-20T04:31:21.312Z,19.30
2018-12-20T04:32:21.302Z,22.00
2018-12-20T04:33:21.680Z,19.60
2018-12-20T04:34:21.318Z,20.50
2018-12-20T04:35:21.269Z,22.00
2018-12-20T04:36:21.423Z,21.40
2018-12-20T04:37:21.381Z,22.00
2018-12-20T04:38:21.237Z,19.60
2018-12-20T04:39:21.288Z,20.90
2018-12-20T04:40:21.214Z,20.00
2018-12-20T04:41:21.184Z,22.20
2018-12-20T04:42:21.362Z,21.70
2018-12-20T04:43:21.168Z,22.10
2018-12-20T04:44:21.398Z,20.20
2018-12-20T04:45:21.204Z,20.80
2018-12-20T04:46:21.133Z,21.10
2018-12-20T04:47:21.376Z,20.10
2018-12-20T04:48:21.318Z,20.60
2018-12-20T04:49:21.098Z,19.20
2018-12-20T04:50:21.133Z,21.60
2018-12-20T04:51:21.124Z,20.90
2018-12-20T04:52:21.148Z,19.20
2018-12-20T04:53:21.057Z,19.10
2018-12-20T04:54:21.041Z,19.20
2018-12-20T04:55:21.046Z,19.10
2018-12-20T04:56:21.054Z,18.20
2018-12-20T04:57:21.016Z,19.50
2018-12-20T04:58:21.185Z,19.30
2018-12-20T04:59:21.200Z,19.20
2018-12-20T05:00:21.170Z,19.40
2018-12-20T05:01:20.979Z,17.60
2018-12-20T05:02:21.296Z,19.10
2018-12-20T05:03:20.976Z,19.60
2018-12-20T05:04:20.938Z,18.50
2018-12-20T05:05:21.195Z,17.90
2018-12-20T05:06:20.911Z,17.50
2018-12-20T05:07:21.182Z,16.60
2018-12-20T05:08:20.905Z,18.30
2018-12-20T05:09:20.931Z,18.10
2018-12-20T05:10:20.894Z,19.40
2018-12-20T05:11:20.867Z,18.20
2018-12-20T05:12:20.842Z,17.30
2018-12-20T05:13:21.035Z,17.10
2018-12-20T05:14:21.003Z,18.80
2018-12-20T05:15:20.856Z,17.20
2018-12-20T05:16:20.971Z,16.90
2018-12-20T05:17:20.798Z,16.30
2018-12-20T05:18:20.771Z,17.80
2018-12-20T05:19:21.134Z,17.50
2018-12-20T05:20:21.008Z,17.00
2018-12-20T05:21:20.793Z,16.00
2018-12-20T05:22:20.875Z,16.50
2018-12-20T05:23:20.743Z,15.80
2018-12-20T05:24:20.708Z,15.50
2018-12-20T05:25:20.702Z,16.00
2018-12-20T05:26:20.768Z,16.20
2018-12-20T05:27:20.865Z,17.40
2018-12-20T05:28:20.791Z,16.20
2018-12-20T05:29:20.685Z,16.30
2018-12-20T05:30:20.789Z,16.40
2018-12-20T05:31:20.818Z,16.70
2018-12-20T05:32:20.621Z,15.90
2018-12-20T05:33:20.773Z,16.30
2018-12-20T05:34:20.596Z,16.20
2018-12-20T05:35:20.690Z,17.20
2018-12-20T05:36:20.753Z,16.00
2018-12-20T05:37:20.714Z,15.20
2018-12-20T05:38:20.619Z,15.50
2018-12-20T05:39:20.771Z,15.90
2018-12-20T05:40:20.537Z,16.20
2018-12-20T05:41:20.512Z,15.80
2018-12-20T05:42:20.753Z,15.70
2018-12-20T05:43:20.498Z,16.80
2018-12-20T05:44:20.552Z,16.40
2018-12-20T05:45:20.480Z,16.60
2018-12-20T05:46:20.641Z,15.50
2018-12-20T05:47:20.588Z,16.40
2018-12-20T05:48:20.509Z,15.80
2018-12-20T05:49:20.437Z,16.00
2018-12-20T05:50:20.419Z,15.70
2018-12-20T05:51:20.409Z,16.50
2018-12-20T05:52:20.543Z,16.00
2018-12-20T05:53:20.418Z,16.90
2018-12-20T05:54:20.440Z,16.30
2018-12-20T05:55:20.542Z,16.80
2018-12-20T05:56:20.349Z,16.10
2018-12-20T05:57:20.352Z,16.60
2018-12-20T05:58:20.391Z,15.80
2018-12-20T05:59:20.355Z,15.40
2018-12-20T06:00:20.538Z,15.70
2018-12-20T06:01:20.300Z,16.60
2018-12-20T06:02:20.308Z,16.40
2018-12-20T06:03:20.273Z,16.60
2018-12-20T06:04:20.556Z,16.10
2018-12-20T06:05:20.313Z,15.20
2018-12-20T06:06:20.458Z,15.40
2018-12-20T06:07:20.256Z,16.70
2018-12-20T06:08:20.493Z,15.20
2018-12-20T06:09:20.273Z,15.10
2018-12-20T06:10:20.204Z,15.30
2018-12-20T06:11:20.206Z,16.00
2018-12-20T06:12:20.478Z,15.60
2018-12-20T06:13:20.183Z,16.30
2018-12-20T06:14:20.148Z,15.30
2018-12-20T06:15:20.154Z,15.70
2018-12-20T06:16:20.144Z,15.00
2018-12-20T06:17:20.480Z,15.80
2018-12-20T06:18:20.150Z,15.50
2018-12-20T06:19:20.358Z,15.10
2018-12-20T06:20:20.288Z,15.80
2018-12-20T06:21:20.157Z,15.40
2018-12-20T06:22:20.180Z,15.70
2018-12-20T06:23:20.140Z,15.30
2018-12-20T06:24:20.064Z,15.80
2018-12-20T06:25:21.395Z,15.70
2018-12-20T06:26:20.060Z,15.80
2018-12-20T06:27:19.998Z,15.90
2018-12-20T06:28:19.991Z,16.30
2018-12-20T06:29:19.976Z,16.00
2018-12-20T06:30:19.971Z,15.50
2018-12-20T06:31:19.964Z,14.90
2018-12-20T06:32:19.987Z,16.80
2018-12-20T06:33:19.932Z,15.20
2018-12-20T06:34:19.937Z,15.30
2018-12-20T06:35:19.915Z,15.80
2018-12-20T06:36:19.907Z,15.40
2018-12-20T06:37:20.009Z,15.00
2018-12-20T06:38:19.882Z,15.60
2018-12-20T06:39:19.888Z,15.90
2018-12-20T06:40:19.889Z,15.50
2018-12-20T06:41:19.847Z,15.30
2018-12-20T06:42:19.844Z,14.80
2018-12-20T06:43:19.826Z,15.60
2018-12-20T06:44:19.829Z,14.60
2018-12-20T06:45:19.808Z,15.20
2018-12-20T06:46:21.290Z,15.50
2018-12-20T06:47:19.780Z,14.40
2018-12-20T06:48:19.770Z,14.70
2018-12-20T06:49:19.769Z,14.40
2018-12-20T06:50:19.783Z,13.90
2018-12-20T06:51:19.762Z,14.90
2018-12-20T06:52:19.728Z,14.90
2018-12-20T06:53:19.729Z,14.30
2018-12-20T06:54:19.710Z,14.80
2018-12-20T06:55:19.729Z,15.00
2018-12-20T06:56:19.679Z,14.30
2018-12-20T06:57:19.670Z,14.70
2018-12-20T06:58:19.670Z,14.20
2018-12-20T06:59:19.646Z,13.50
2018-12-20T07:00:19.659Z,12.90
2018-12-20T07:01:19.631Z,14.10
2018-12-20T07:02:19.613Z,14.20
2018-12-20T07:03:19.605Z,14.70
2018-12-20T07:04:19.594Z,13.80
2018-12-20T07:05:19.588Z,13.00
2018-12-20T07:06:19.592Z,13.60
2018-12-20T07:07:19.563Z,13.60
2018-12-20T07:08:19.581Z,14.40
2018-12-20T07:09:19.540Z,13.80
2018-12-20T07:10:19.557Z,13.30
2018-12-20T07:11:19.636Z,13.30
2018-12-20T07:12:19.549Z,14.10
2018-12-20T07:13:19.508Z,14.40
2018-12-20T07:14:19.499Z,13.30
2018-12-20T07:15:19.487Z,12.40
2018-12-20T07:16:19.496Z,13.20
2018-12-20T07:17:19.472Z,13.50
2018-12-20T07:18:19.453Z,13.40
2018-12-20T07:19:19.433Z,12.90
2018-12-20T07:20:19.421Z,13.30
2018-12-20T07:21:19.417Z,13.30
2018-12-20T07:22:21.525Z,12.90
2018-12-20T07:23:19.385Z,12.70
2018-12-20T07:24:19.379Z,12.60
2018-12-20T07:25:19.356Z,14.30
2018-12-20T07:26:19.371Z,14.50
2018-12-20T07:27:19.334Z,12.50
2018-12-20T07:28:19.347Z,12.40
2018-12-20T07:29:19.312Z,12.90
2018-12-20T07:30:19.320Z,12.70
2018-12-20T07:31:19.312Z,12.10
2018-12-20T07:32:25.132Z,12.40
2018-12-20T07:33:20.290Z,12.50
2018-12-20T07:34:19.261Z,12.80
2018-12-20T07:35:19.243Z,13.10
2018-12-20T07:36:19.232Z,12.70
2018-12-20T07:37:19.227Z,12.80
2018-12-20T07:38:19.243Z,12.70
2018-12-20T07:39:19.201Z,12.70
2018-12-20T07:40:19.187Z,12.50
2018-12-20T07:41:19.195Z,12.70
2018-12-20T07:42:19.166Z,13.00
2018-12-20T07:43:19.188Z,12.40
2018-12-20T07:44:19.174Z,12.00
2018-12-20T07:45:19.161Z,12.70
2018-12-20T07:46:19.134Z,12.60
2018-12-20T07:47:19.122Z,12.40
2018-12-20T07:48:19.114Z,13.10
2018-12-20T07:49:19.154Z,11.90
2018-12-20T07:50:19.087Z,11.80
2018-12-20T07:51:19.086Z,11.70
2018-12-20T07:52:19.056Z,11.60
2018-12-20T07:53:19.070Z,11.60
2018-12-20T07:54:19.033Z,11.10
2018-12-20T07:55:19.024Z,11.50
2018-12-20T07:56:19.014Z,11.70
2018-12-20T07:57:19.005Z,12.20
2018-12-20T07:58:19.030Z,11.20
2018-12-20T07:59:23.561Z,10.80
2018-12-20T08:00:18.976Z,11.00
2018-12-20T08:01:18.960Z,11.50
2018-12-20T08:02:18.957Z,11.30
2018-12-20T08:03:18.937Z,12.10
2018-12-20T08:04:18.947Z,11.10
2018-12-20T08:05:18.946Z,10.50
2018-12-20T08:06:18.902Z,9.90
2018-12-20T08:07:18.891Z,11.00
2018-12-20T08:08:18.885Z,9.60
2018-12-20T08:09:18.905Z,10.10
2018-12-20T08:10:18.866Z,10.20
2018-12-20T08:11:18.877Z,9.40
2018-12-20T08:12:18.843Z,10.30
2018-12-20T08:13:18.831Z,9.60
2018-12-20T08:14:18.839Z,10.10
2018-12-20T08:15:18.835Z,9.30
2018-12-20T08:16:18.792Z,9.80
2018-12-20T08:17:18.780Z,9.70
2018-12-20T08:18:18.780Z,9.40
2018-12-20T08:19:18.838Z,9.60
2018-12-20T08:20:18.762Z,9.70
2018-12-20T08:21:18.738Z,8.10
2018-12-20T08:22:18.730Z,9.40
2018-12-20T08:23:18.723Z,8.90
2018-12-20T08:24:18.708Z,9.00
2018-12-20T08:25:18.750Z,8.80
2018-12-20T08:26:18.696Z,8.40
2018-12-20T08:27:18.681Z,8.60
2018-12-20T08:28:18.680Z,8.70
2018-12-20T08:29:18.692Z,8.50
2018-12-20T08:30:18.676Z,8.60
2018-12-20T08:31:18.635Z,8.70
2018-12-20T08:32:18.622Z,8.90
2018-12-20T08:33:18.625Z,8.90
2018-12-20T08:34:18.601Z,9.40
2018-12-20T08:35:18.617Z,8.60
2018-12-20T08:36:18.601Z,9.00
2018-12-20T08:37:18.556Z,8.20
2018-12-20T08:38:18.562Z,8.80
2018-12-20T08:39:18.559Z,8.80
2018-12-20T08:40:18.572Z,8.60
2018-12-20T08:41:18.546Z,9.00
2018-12-20T08:42:18.514Z,8.10
2018-12-20T08:43:18.502Z,8.10
2018-12-20T08:44:18.497Z,8.20
2018-12-20T08:45:18.486Z,8.10
2018-12-20T08:46:18.495Z,8.60
2018-12-20T08:47:18.449Z,7.80
2018-12-20T08:48:18.440Z,6.70
2018-12-20T08:49:18.431Z,6.80
2018-12-20T08:50:18.422Z,7.10
2018-12-20T08:51:18.450Z,6.50
2018-12-20T08:52:18.395Z,7.00
2018-12-20T08:53:18.389Z,6.90
2018-12-20T08:54:18.383Z,6.90
2018-12-20T08:55:18.362Z,6.50
2018-12-20T08:56:18.414Z,6.70
2018-12-20T08:57:18.338Z,6.60
2018-12-20T08:58:18.337Z,7.00
2018-12-20T08:59:18.323Z,6.90
2018-12-20T09:00:18.336Z,6.50
2018-12-20T09:01:18.315Z,6.60
2018-12-20T09:02:18.321Z,6.00
2018-12-20T09:03:18.273Z,6.80
2018-12-20T09:04:18.297Z,6.70
2018-12-20T09:05:18.272Z,6.40
2018-12-20T09:06:18.255Z,6.30
2018-12-20T09:07:18.256Z,6.60
2018-12-20T09:08:18.222Z,6.30
2018-12-20T09:09:18.210Z,6.50
2018-12-20T09:10:18.194Z,6.10
2018-12-20T09:11:18.195Z,6.20
2018-12-20T09:12:18.207Z,5.50
2018-12-20T09:13:18.162Z,6.20
2018-12-20T09:14:18.173Z,6.20
2018-12-20T09:15:18.142Z,6.00
2018-12-20T09:16:18.127Z,5.80
2018-12-20T09:17:18.133Z,5.10
2018-12-20T09:18:18.117Z,5.20
2018-12-20T09:19:18.108Z,5.90
2018-12-20T09:20:18.089Z,5.90
2018-12-20T09:21:18.073Z,5.10
2018-12-20T09:22:18.094Z,5.80
2018-12-20T09:23:18.061Z,5.50
2018-12-20T09:24:18.049Z,5.50
2018-12-20T09:25:18.035Z,6.10
2018-12-20T09:26:18.036Z,5.80
2018-12-20T09:27:18.029Z,5.60
2018-12-20T09:28:18.016Z,5.40
2018-12-20T09:29:17.992Z,5.60
2018-12-20T09:30:17.990Z,5.80
2018-12-20T09:31:17.967Z,5.80
2018-12-20T09:32:17.985Z,6.40
2018-12-20T09:33:17.967Z,5.90
2018-12-20T09:34:17.947Z,5.40
2018-12-20T09:35:17.926Z,5.50
2018-12-20T09:36:17.913Z,5.30
2018-12-20T09:37:17.910Z,5.50
2018-12-20T09:38:17.916Z,5.30
2018-12-20T09:39:17.904Z,5.60
2018-12-20T09:40:17.894Z,5.00
2018-12-20T09:41:17.881Z,5.40
2018-12-20T09:42:17.861Z,5.60
2018-12-20T09:43:17.864Z,5.60
2018-12-20T09:44:17.842Z,5.90
2018-12-20T09:45:17.824Z,5.20
2018-12-20T09:46:17.837Z,5.90
2018-12-20T09:47:17.795Z,5.50
2018-12-20T09:48:17.814Z,5.80
2018-12-20T09:49:17.787Z,5.40
2018-12-20T09:50:17.772Z,5.50
2018-12-20T09:51:17.754Z,6.20
2018-12-20T09:52:17.743Z,6.30
2018-12-20T09:53:17.758Z,5.20
2018-12-20T09:54:17.751Z,6.10
2018-12-20T09:55:17.710Z,5.30
2018-12-20T09:56:17.686Z,5.50
2018-12-20T09:57:17.680Z,5.60
2018-12-20T09:58:17.672Z,6.40
2018-12-20T09:59:17.691Z,5.60
2018-12-20T10:00:17.646Z,5.60
2018-12-20T10:01:17.645Z,5.70
2018-12-20T10:02:17.628Z,5.60
2018-12-20T10:03:17.610Z,5.50
2018-12-20T10:04:17.623Z,6.10
2018-12-20T10:05:17.649Z,5.30
2018-12-20T10:06:17.583Z,5.60
2018-12-20T10:07:17.577Z,5.70
2018-12-20T10:08:17.554Z,5.70
2018-12-20T10:09:17.567Z,5.40
2018-12-20T10:10:17.589Z,5.70
2018-12-20T10:11:17.541Z,5.40
2018-12-20T10:12:17.516Z,5.10
2018-12-20T10:13:17.508Z,5.30
2018-12-20T10:14:17.518Z,5.20
2018-12-20T10:15:17.483Z,5.10
2018-12-20T10:16:17.478Z,5.60
2018-12-20T10:17:19.921Z,4.80
2018-12-20T10:18:17.479Z,5.50
2018-12-20T10:19:17.462Z,6.20
2018-12-20T10:20:17.450Z,5.10
2018-12-20T10:21:17.437Z,4.90
2018-12-20T10:22:17.417Z,5.10
2018-12-20T10:23:17.398Z,5.50
2018-12-20T10:24:17.391Z,5.10
2018-12-20T10:25:17.403Z,5.40
2018-12-20T10:26:17.376Z,4.70
2018-12-20T10:27:17.375Z,6.10
2018-12-20T10:28:17.353Z,5.10
2018-12-20T10:29:17.346Z,5.20
2018-12-20T10:30:17.340Z,5.50
2018-12-20T10:31:17.315Z,5.50
2018-12-20T10:32:17.305Z,5.20
2018-12-20T10:33:17.812Z,5.70
2018-12-20T10:34:17.273Z,5.00
2018-12-20T10:35:17.295Z,4.90
2018-12-20T10:36:17.306Z,5.50
2018-12-20T10:37:17.246Z,5.70
2018-12-20T10:38:17.229Z,5.10
2018-12-20T10:39:17.230Z,4.80
2018-12-20T10:40:17.232Z,4.90
2018-12-20T10:41:17.199Z,5.00
2018-12-20T10:42:17.180Z,5.20
2018-12-20T10:43:17.174Z,5.30
2018-12-20T10:44:17.161Z,5.40
2018-12-20T10:45:17.213Z,5.90
2018-12-20T10:46:17.177Z,4.90
2018-12-20T10:47:17.129Z,5.20
2018-12-20T10:48:17.120Z,5.20
2018-12-20T10:49:17.114Z,5.70
2018-12-20T10:50:17.111Z,5.20
2018-12-20T10:51:17.101Z,5.40
2018-12-20T10:52:17.311Z,5.60
2018-12-20T10:53:17.067Z,5.20
2018-12-20T10:54:17.054Z,5.30
2018-12-20T10:55:17.055Z,5.60
2018-12-20T10:56:17.063Z,5.50
2018-12-20T10:57:17.018Z,5.70
2018-12-20T10:58:17.007Z,5.10
2018-12-20T10:59:16.996Z,5.30
2018-12-20T11:00:16.991Z,5.30
2018-12-20T11:01:16.997Z,5.30
2018-12-20T11:02:16.965Z,5.10
2018-12-20T11:03:16.961Z,5.50
2018-12-20T11:04:16.937Z,5.30
2018-12-20T11:05:16.937Z,5.50
2018-12-20T11:06:16.915Z,5.70
2018-12-20T11:07:16.923Z,5.20
2018-12-20T11:08:16.895Z,4.90
2018-12-20T11:09:16.883Z,4.40
2018-12-20T11:10:16.875Z,5.40
2018-12-20T11:11:16.868Z,5.20
2018-12-20T11:12:16.880Z,6.20
2018-12-20T11:13:16.844Z,5.40
2018-12-20T11:14:16.836Z,5.60
2018-12-20T11:15:16.819Z,6.10
2018-12-20T11:16:16.814Z,5.20
2018-12-20T11:17:16.824Z,5.10
2018-12-20T11:18:16.786Z,16.60
2018-12-20T11:19:16.772Z,7.80
2018-12-20T11:20:16.755Z,43.10
2018-12-20T11:21:16.752Z,6.70
2018-12-20T11:22:16.814Z,22.70
2018-12-20T11:23:16.732Z,24.60
2018-12-20T11:24:16.721Z,9.30
2018-12-20T11:25:16.739Z,23.80
2018-12-20T11:26:16.737Z,5.30
2018-12-20T11:27:16.705Z,4.70
2018-12-20T11:28:16.679Z,4.40
2018-12-20T11:29:16.663Z,4.30
2018-12-20T11:30:16.662Z,4.80
2018-12-20T11:31:16.650Z,6.80
2018-12-20T11:32:16.658Z,5.50
2018-12-20T11:33:16.616Z,4.60
2018-12-20T11:34:16.624Z,5.80
2018-12-20T11:35:16.611Z,4.90
2018-12-20T11:36:16.592Z,4.20
2018-12-20T11:37:16.610Z,4.30
2018-12-20T11:38:16.594Z,4.30
2018-12-20T11:39:16.553Z,4.10
2018-12-20T11:40:16.549Z,4.30
2018-12-20T11:41:16.541Z,4.30
2018-12-20T11:42:16.526Z,4.10
2018-12-20T11:43:16.549Z,4.30
2018-12-20T11:44:16.514Z,4.40
2018-12-20T11:45:16.498Z,4.10
2018-12-20T11:46:16.484Z,4.50
2018-12-20T11:47:16.501Z,4.60
2018-12-20T11:48:16.484Z,3.90
2018-12-20T11:49:16.446Z,4.30
2018-12-20T11:50:16.430Z,7.70
2018-12-20T11:51:16.465Z,3.90
2018-12-20T11:52:16.418Z,3.90
2018-12-20T11:53:16.507Z,3.30
2018-12-20T11:54:16.406Z,5.20
2018-12-20T11:55:16.396Z,3.80
2018-12-20T11:56:16.384Z,3.70
2018-12-20T11:57:16.363Z,3.40
2018-12-20T11:58:16.373Z,3.20
2018-12-20T11:59:16.332Z,3.60
2018-12-20T12:00:16.344Z,3.50
2018-12-20T12:01:16.314Z,3.60
2018-12-20T12:02:24.251Z,3.70
2018-12-20T12:03:17.351Z,3.70
2018-12-20T12:04:16.274Z,3.60
2018-12-20T12:05:16.275Z,3.20
2018-12-20T12:06:16.255Z,2.90
2018-12-20T12:07:16.248Z,3.20
2018-12-20T12:08:16.235Z,3.40
2018-12-20T12:09:16.249Z,3.30
2018-12-20T12:10:16.214Z,3.70
2018-12-20T12:11:16.205Z,3.20
2018-12-20T12:12:16.196Z,2.80
2018-12-20T12:13:16.181Z,3.50
2018-12-20T12:14:16.187Z,3.20
2018-12-20T12:15:16.156Z,3.00
2018-12-20T12:16:16.147Z,3.40
2018-12-20T12:17:16.138Z,3.40
2018-12-20T12:18:16.127Z,3.00
2018-12-20T12:19:16.136Z,3.10
2018-12-20T12:20:16.113Z,2.80
2018-12-20T12:21:16.087Z,2.70
2018-12-20T12:22:16.081Z,2.80
2018-12-20T12:23:16.072Z,3.10
2018-12-20T12:24:16.094Z,2.80
2018-12-20T12:25:16.044Z,2.80
2018-12-20T12:26:16.031Z,2.70
2018-12-20T12:27:16.131Z,2.80
2018-12-20T12:28:16.013Z,2.90
2018-12-20T12:29:16.036Z,2.80
2018-12-20T12:30:16.020Z,2.30
2018-12-20T12:31:15.989Z,2.00
2018-12-20T12:32:15.963Z,2.00
2018-12-20T12:33:15.963Z,2.00
2018-12-20T12:34:15.962Z,2.20
2018-12-20T12:35:15.977Z,2.30
2018-12-20T12:36:15.923Z,2.20
2018-12-20T12:37:15.918Z,2.10
2018-12-20T12:38:15.901Z,2.00
2018-12-20T12:39:15.903Z,2.40
2018-12-20T12:40:15.892Z,2.20
2018-12-20T12:41:15.869Z,2.10
2018-12-20T12:42:15.860Z,1.90
2018-12-20T12:43:15.854Z,2.10
2018-12-20T12:44:15.860Z,2.10
2018-12-20T12:45:15.860Z,2.10
2018-12-20T12:46:15.818Z,1.90
2018-12-20T12:47:15.802Z,2.20
2018-12-20T12:48:15.793Z,1.90
2018-12-20T12:49:15.783Z,2.00
2018-12-20T12:50:15.822Z,2.50
2018-12-20T12:51:15.775Z,2.30
2018-12-20T12:52:15.763Z,2.30
2018-12-20T12:53:15.743Z,2.50
2018-12-20T12:54:15.731Z,2.60
2018-12-20T12:55:15.737Z,2.40
2018-12-20T12:56:15.735Z,2.50
2018-12-20T12:57:15.692Z,3.00
2018-12-20T12:58:15.679Z,3.40
2018-12-20T12:59:15.699Z,2.60
2018-12-20T13:00:15.677Z,2.80
2018-12-20T13:01:15.654Z,2.60